Time;durP1;ratioP1;P1;durP2;ratioP2;P2;SDS_P1;SDS_P2;PMS_P1;PMS_P2;Temp;Humidity;BMP_temperature;BMP_pressure;BME280_temperature;BME280_humidity;BME280_pressure;Samples;Min_cycle;Max_cycle;Signal;HPM_P1;HPM_P2
2023/09/29 00:00:13;;;;;;;1999.90;999.90;;;16.90;99.90;;;;;;5092284;28;20440;-74
2023/09/29 00:02:41;;;;;;;1999.90;999.90;;;16.70;99.90;;;;;;5093012;28;20442;-75
2023/09/29 00:05:10;;;;;;;1999.90;999.90;;;16.70;99.90;;;;;;5091318;28;20421;-74
2023/09/29 00:07:37;;;;;;;1999.90;999.90;;;16.70;99.90;;;;;;5092721;28;20438;-74
2023/09/29 00:10:08;;;;;;;1999.90;999.90;;;16.70;99.90;;;;;;5092060;28;20441;-74
2023/09/29 00:12:35;;;;;;;1999.90;999.90;;;16.70;99.90;;;;;;5092967;28;20486;-75
2023/09/29 00:15:03;;;;;;;1999.90;999.90;;;16.50;99.90;;;;;;5092080;28;20525;-74
2023/09/29 00:17:30;;;;;;;1999.90;999.90;;;16.60;99.90;;;;;;5092437;28;20500;-74
2023/09/29 00:19:58;;;;;;;1999.90;999.90;;;16.60;99.90;;;;;;5079014;28;20976;-74
2023/09/29 00:22:24;;;;;;;1999.90;999.90;;;16.70;99.90;;;;;;5093201;28;21206;-75
2023/09/29 00:24:51;;;;;;;1999.90;999.90;;;16.80;99.90;;;;;;5089705;28;20429;-74
2023/09/29 00:27:18;;;;;;;1999.90;999.90;;;16.70;99.90;;;;;;5088893;28;20458;-75
2023/09/29 00:29:44;;;;;;;1999.90;999.90;;;16.70;99.90;;;;;;5091120;28;20957;-75
2023/09/29 00:32:12;;;;;;;1999.90;999.90;;;17.00;99.90;;;;;;5092461;28;20930;-74
2023/09/29 00:34:38;;;;;;;1999.90;999.90;;;17.00;99.90;;;;;;5092302;28;20433;-74
2023/09/29 00:37:08;;;;;;;1999.90;999.90;;;16.90;99.90;;;;;;5092817;28;20882;-74
2023/09/29 00:39:35;;;;;;;1999.90;999.90;;;16.90;99.90;;;;;;5089488;28;20426;-74
2023/09/29 00:42:03;;;;;;;1999.90;999.90;;;16.90;99.90;;;;;;5090424;28;20436;-74
2023/09/29 00:44:30;;;;;;;1999.90;999.90;;;17.10;99.90;;;;;;5089125;28;20427;-74
2023/09/29 00:46:57;;;;;;;1999.90;999.90;;;17.10;99.90;;;;;;5082704;28;20418;-75
2023/09/29 00:49:24;;;;;;;1999.90;999.90;;;17.10;99.90;;;;;;5088708;28;20457;-74
2023/09/29 00:51:52;;;;;;;1999.90;999.90;;;17.10;99.90;;;;;;5089881;28;20440;-74
2023/09/29 00:54:21;;;;;;;1999.90;999.90;;;16.90;99.90;;;;;;5089892;28;20433;-75
2023/09/29 00:56:47;;;;;;;1999.90;999.90;;;16.80;99.90;;;;;;5091558;28;20469;-74
2023/09/29 00:59:14;;;;;;;1999.90;999.90;;;17.00;99.90;;;;;;5091326;28;20518;-74
2023/09/29 01:01:41;;;;;;;1999.90;999.90;;;16.80;99.90;;;;;;5091587;28;20440;-74
2023/09/29 01:04:10;;;;;;;1999.90;999.90;;;16.80;99.90;;;;;;5089886;28;20433;-74
2023/09/29 01:06:37;;;;;;;1999.90;999.90;;;16.80;99.90;;;;;;5092238;28;20512;-74
2023/09/29 01:09:05;;;;;;;1999.90;999.90;;;16.80;99.90;;;;;;5091451;28;20456;-75
2023/09/29 01:11:43;;;;;;;1999.90;999.90;;;16.90;99.90;;;;;;5090448;28;20907;-74
2023/09/29 01:14:11;;;;;;;1999.90;999.90;;;17.10;99.90;;;;;;5091061;28;20434;-75
2023/09/29 01:16:38;;;;;;;1999.90;999.90;;;17.00;99.90;;;;;;5091859;28;20426;-75
2023/09/29 01:19:11;;;;;;;1999.90;999.90;;;17.00;99.90;;;;;;5091107;28;20524;-74
2023/09/29 01:21:38;;;;;;;1999.90;999.90;;;16.90;99.90;;;;;;5089566;28;20436;-74
2023/09/29 01:24:07;;;;;;;1999.90;999.90;;;16.80;99.90;;;;;;5090762;28;20900;-74
2023/09/29 01:26:34;;;;;;;1999.90;999.90;;;16.80;99.90;;;;;;5089377;28;20943;-74
2023/09/29 01:29:01;;;;;;;1999.90;999.90;;;16.80;99.90;;;;;;5091965;28;20436;-74
2023/09/29 01:31:27;;;;;;;1999.90;999.90;;;16.80;99.90;;;;;;5091602;28;20425;-72
2023/09/29 01:33:54;;;;;;;1999.90;999.90;;;16.70;99.90;;;;;;5090807;28;20425;-74
2023/09/29 01:36:21;;;;;;;1999.90;999.90;;;16.60;99.90;;;;;;5091417;28;20421;-74
2023/09/29 01:38:49;;;;;;;1999.90;999.90;;;16.50;99.90;;;;;;5090823;28;20450;-74
2023/09/29 01:41:17;;;;;;;1999.90;999.90;;;16.60;99.90;;;;;;5088479;28;20430;-74
2023/09/29 01:43:45;;;;;;;1999.90;999.90;;;16.60;99.90;;;;;;5088032;28;20429;-74
2023/09/29 01:46:15;;;;;;;1999.90;999.90;;;16.50;99.90;;;;;;5089194;28;20481;-74
2023/09/29 01:48:41;;;;;;;1999.90;999.90;;;16.60;99.90;;;;;;5091630;28;20547;-74
2023/09/29 01:51:08;;;;;;;1999.90;999.90;;;16.70;99.90;;;;;;5089303;28;20437;-74
2023/09/29 01:53:35;;;;;;;1999.90;999.90;;;16.40;99.90;;;;;;5083356;28;20437;-75
2023/09/29 01:56:02;;;;;;;1999.90;999.90;;;16.40;99.90;;;;;;5082017;28;20427;-75
2023/09/29 01:58:31;;;;;;;1999.90;999.90;;;16.60;99.90;;;;;;5076866;28;20456;-75
2023/09/29 02:00:58;;;;;;;1999.90;999.90;;;16.80;99.90;;;;;;5083096;28;20520;-74
2023/09/29 02:03:25;;;;;;;1999.90;999.90;;;17.10;99.90;;;;;;5086139;28;20918;-74
2023/09/29 02:05:52;;;;;;;1999.90;999.90;;;17.20;99.90;;;;;;5087479;28;20911;-74
2023/09/29 02:08:19;;;;;;;1999.90;999.90;;;17.30;99.90;;;;;;5089594;28;20934;-74
2023/09/29 02:10:49;;;;;;;1999.90;999.90;;;17.70;99.90;;;;;;5083043;28;20521;-74
2023/09/29 02:13:16;;;;;;;1999.90;999.90;;;18.00;99.90;;;;;;5089082;28;20436;-74
2023/09/29 02:15:44;;;;;;;1999.90;999.90;;;18.20;99.90;;;;;;5085873;28;20648;-74
2023/09/29 02:18:11;;;;;;;1999.90;999.90;;;18.10;99.90;;;;;;5090857;28;20478;-75
2023/09/29 02:20:41;;;;;;;1999.90;999.90;;;18.00;99.90;;;;;;5083482;28;20431;-75
2023/09/29 02:23:08;;;;;;;1999.90;999.90;;;17.90;99.90;;;;;;5085271;28;20534;-75
2023/09/29 02:25:35;;;;;;;1999.90;999.90;;;17.70;99.90;;;;;;5089325;28;20920;-74
2023/09/29 02:28:01;;;;;;;1999.90;999.90;;;17.70;99.90;;;;;;5085800;28;20947;-74
2023/09/29 02:30:29;;;;;;;1999.90;999.90;;;17.70;99.90;;;;;;5079310;28;20431;-75
2023/09/29 02:32:57;;;;;;;1999.90;999.90;;;17.90;99.90;;;;;;5080620;28;20430;-74
2023/09/29 02:35:24;;;;;;;1999.90;999.90;;;18.10;99.90;;;;;;5085546;28;20515;-74
2023/09/29 02:37:52;;;;;;;1999.90;999.90;;;18.10;99.90;;;;;;5090643;28;20457;-74
2023/09/29 02:40:19;;;;;;;1999.90;999.90;;;18.10;99.90;;;;;;5085037;28;20485;-74
2023/09/29 02:42:46;;;;;;;1999.90;999.90;;;18.10;99.90;;;;;;5082760;28;21191;-74
2023/09/29 02:45:13;;;;;;;1999.90;999.90;;;18.10;99.90;;;;;;5082061;28;20429;-74
2023/09/29 02:47:41;;;;;;;1999.90;999.90;;;18.40;99.90;;;;;;5090941;28;20438;-74
2023/09/29 02:50:11;;;;;;;1999.90;999.90;;;18.40;99.90;;;;;;5085533;28;20507;-73
2023/09/29 02:52:39;;;;;;;1999.90;999.90;;;18.40;99.90;;;;;;5082689;28;20433;-74
2023/09/29 02:55:11;;;;;;;1999.90;999.90;;;18.60;99.90;;;;;;5077072;28;20911;-74
2023/09/29 02:57:38;;;;;;;1999.90;999.90;;;18.50;99.90;;;;;;5090461;28;20430;-74
2023/09/29 03:00:10;;;;;;;1999.90;999.90;;;18.30;99.90;;;;;;5085852;28;20820;-74
2023/09/29 03:02:36;;;;;;;1999.90;999.90;;;18.20;99.90;;;;;;5088420;28;20429;-74
2023/09/29 03:05:05;;;;;;;1999.90;999.90;;;18.20;99.90;;;;;;5084984;28;20427;-74
2023/09/29 03:07:34;;;;;;;1999.90;999.90;;;18.10;99.90;;;;;;5080082;28;20432;-74
2023/09/29 03:10:00;;;;;;;1999.90;999.90;;;18.00;99.90;;;;;;5086667;28;20484;-74
2023/09/29 03:12:27;;;;;;;1999.90;999.90;;;17.90;99.90;;;;;;5085719;28;20452;-74
2023/09/29 03:14:54;;;;;;;1999.90;999.90;;;17.90;99.90;;;;;;5087941;28;20436;-75
2023/09/29 03:17:20;;;;;;;1999.90;999.90;;;17.90;99.90;;;;;;5076023;28;20431;-74
2023/09/29 03:19:47;;;;;;;1999.90;999.90;;;17.90;99.90;;;;;;5086839;28;20919;-74
2023/09/29 03:22:14;;;;;;;1999.90;999.90;;;17.80;99.90;;;;;;5084519;28;20438;-74
2023/09/29 03:24:42;;;;;;;1999.90;999.90;;;17.60;99.90;;;;;;5084036;28;20438;-74
2023/09/29 03:27:09;;;;;;;1999.90;999.90;;;17.80;99.90;;;;;;5083126;28;20942;-75
2023/09/29 03:29:36;;;;;;;1999.90;999.90;;;17.50;99.90;;;;;;5088783;28;20437;-74
2023/09/29 03:32:03;;;;;;;1999.90;999.90;;;17.60;99.90;;;;;;5089828;28;20433;-74
2023/09/29 03:34:29;;;;;;;1999.90;999.90;;;17.50;99.90;;;;;;5084456;28;20432;-74
2023/09/29 03:36:56;;;;;;;1999.90;999.90;;;17.50;99.90;;;;;;5080287;28;20796;-74
2023/09/29 03:39:23;;;;;;;1999.90;999.90;;;17.50;99.90;;;;;;5072627;28;20435;-74
2023/09/29 03:41:51;;;;;;;1999.90;999.90;;;17.60;99.90;;;;;;5088367;28;20426;-74
2023/09/29 03:44:18;;;;;;;1999.90;999.90;;;17.50;99.90;;;;;;5083457;28;20457;-74
2023/09/29 03:46:45;;;;;;;1999.90;999.90;;;17.50;99.90;;;;;;5089583;28;20426;-74
2023/09/29 03:49:12;;;;;;;1999.90;999.90;;;17.40;99.90;;;;;;5089190;28;20429;-75
2023/09/29 03:51:39;;;;;;;1999.90;999.90;;;17.50;99.90;;;;;;5088490;28;20421;-74
2023/09/29 03:54:09;;;;;;;1999.90;999.90;;;17.50;99.90;;;;;;5086458;28;20461;-74
2023/09/29 03:56:36;;;;;;;1999.90;999.90;;;17.50;99.90;;;;;;5088953;28;20797;-74
2023/09/29 03:59:04;;;;;;;1999.90;999.90;;;17.40;99.90;;;;;;5085774;28;20430;-74
2023/09/29 04:01:30;;;;;;;1999.90;999.90;;;17.40;99.90;;;;;;5082461;28;20426;-74
2023/09/29 04:03:57;;;;;;;1999.90;999.90;;;17.40;99.90;;;;;;5087323;28;20435;-74
2023/09/29 04:06:25;;;;;;;1999.90;999.90;;;17.40;99.90;;;;;;5089308;28;20426;-74
2023/09/29 04:08:52;;;;;;;1999.90;999.90;;;17.50;99.90;;;;;;5083469;28;20807;-74
2023/09/29 04:11:19;;;;;;;1999.90;999.90;;;17.30;99.90;;;;;;5074865;28;20442;-74
2023/09/29 04:13:46;;;;;;;1999.90;999.90;;;17.30;99.90;;;;;;5085358;28;20925;-75
2023/09/29 04:16:15;;;;;;;1999.90;999.90;;;17.30;99.90;;;;;;5083261;28;20429;-74
2023/09/29 04:18:41;;;;;;;1999.90;999.90;;;17.30;99.90;;;;;;5087946;28;20848;-75
2023/09/29 04:21:12;;;;;;;1999.90;999.90;;;17.50;99.90;;;;;;5076694;28;20454;-74
2023/09/29 04:23:39;;;;;;;1999.90;999.90;;;17.60;99.90;;;;;;5087423;28;20433;-74
2023/09/29 04:26:14;;;;;;;1999.90;999.90;;;17.60;99.90;;;;;;5075041;28;20853;-74
2023/09/29 04:28:41;;;;;;;1999.90;999.90;;;17.60;99.90;;;;;;5088203;28;20436;-74
2023/09/29 04:31:08;;;;;;;1999.90;999.90;;;17.60;99.90;;;;;;5083475;28;20501;-74
2023/09/29 04:33:36;;;;;;;1999.90;999.90;;;17.70;99.90;;;;;;5078458;28;20429;-74
2023/09/29 04:36:03;;;;;;;1999.90;999.90;;;17.70;99.90;;;;;;5087092;28;20422;-74
2023/09/29 04:38:29;;;;;;;1999.90;999.90;;;17.70;99.90;;;;;;5085389;28;20438;-74
2023/09/29 04:40:56;;;;;;;1999.90;999.90;;;17.70;99.90;;;;;;5084956;28;20938;-74
2023/09/29 04:43:23;;;;;;;1999.90;999.90;;;17.70;99.90;;;;;;5082375;28;20432;-74
2023/09/29 04:45:49;;;;;;;1999.90;999.90;;;17.70;99.90;;;;;;5077996;28;20910;-74
2023/09/29 04:48:16;;;;;;;1999.90;999.90;;;17.70;99.90;;;;;;5079232;28;20799;-74
2023/09/29 04:50:45;;;;;;;1999.90;999.90;;;17.70;99.90;;;;;;5089691;28;20426;-74
2023/09/29 04:53:11;;;;;;;1999.90;999.90;;;17.70;99.90;;;;;;5085189;28;20431;-74
2023/09/29 04:55:38;;;;;;;1999.90;999.90;;;17.70;99.90;;;;;;5081503;28;20437;-74
2023/09/29 04:58:05;;;;;;;1999.90;999.90;;;17.50;99.90;;;;;;5078731;28;20932;-74
2023/09/29 05:00:31;;;;;;;1999.90;999.90;;;17.40;99.90;;;;;;5090937;28;21190;-74
2023/09/29 05:02:58;;;;;;;1999.90;999.90;;;17.40;99.90;;;;;;5084245;28;20433;-74
2023/09/29 05:05:25;;;;;;;1999.90;999.90;;;17.60;99.90;;;;;;5083844;28;20437;-74
2023/09/29 05:07:53;;;;;;;1999.90;999.90;;;17.50;99.90;;;;;;5078986;28;20437;-74
2023/09/29 05:10:20;;;;;;;1999.90;999.90;;;17.40;99.90;;;;;;5080159;28;20430;-74
2023/09/29 05:12:47;;;;;;;1999.90;999.90;;;17.50;99.90;;;;;;5087581;28;20462;-75
2023/09/29 05:15:14;;;;;;;1999.90;999.90;;;17.30;99.90;;;;;;5086655;28;20430;-74
2023/09/29 05:17:40;;;;;;;1999.90;999.90;;;17.30;99.90;;;;;;5082944;28;20536;-74
2023/09/29 05:20:10;;;;;;;1999.90;999.90;;;17.40;99.90;;;;;;5084298;28;20431;-73
2023/09/29 05:22:36;;;;;;;1999.90;999.90;;;17.50;99.90;;;;;;5076607;28;20904;-75
2023/09/29 05:25:06;;;;;;;1999.90;999.90;;;17.30;99.90;;;;;;5087265;28;20439;-74
2023/09/29 05:27:32;;;;;;;1999.90;999.90;;;17.70;99.90;;;;;;5084486;28;20485;-74
2023/09/29 05:29:59;;;;;;;1999.90;999.90;;;17.90;99.90;;;;;;5079353;28;20431;-74
2023/09/29 05:32:26;;;;;;;1999.90;999.90;;;18.00;99.90;;;;;;5081459;28;20430;-74
2023/09/29 05:34:53;;;;;;;1999.90;999.90;;;18.00;99.90;;;;;;5089308;28;20426;-74
2023/09/29 05:37:19;;;;;;;1999.90;999.90;;;18.10;99.90;;;;;;5083606;28;20433;-71
2023/09/29 05:39:47;;;;;;;1999.90;999.90;;;18.00;99.90;;;;;;5083923;28;20430;-74
2023/09/29 05:42:15;;;;;;;1999.90;999.90;;;18.00;99.90;;;;;;5079609;28;20507;-74
2023/09/29 05:44:42;;;;;;;1999.90;999.90;;;18.00;99.90;;;;;;5081150;28;20437;-74
2023/09/29 05:47:08;;;;;;;1999.90;999.90;;;18.00;99.90;;;;;;5085859;28;20413;-74
2023/09/29 05:49:35;;;;;;;1999.90;999.90;;;18.00;99.90;;;;;;5092097;28;20441;-74
2023/09/29 05:52:02;;;;;;;1999.90;999.90;;;18.10;99.90;;;;;;5091706;28;20413;-74
2023/09/29 05:54:29;;;;;;;1999.90;999.90;;;18.00;99.90;;;;;;5082164;28;20461;-75
2023/09/29 05:56:56;;;;;;;1999.90;999.90;;;18.10;99.90;;;;;;5092171;28;20426;-74
2023/09/29 05:59:24;;;;;;;1999.90;999.90;;;18.10;99.90;;;;;;5091881;28;20505;-74
2023/09/29 06:01:51;;;;;;;1999.90;999.90;;;18.10;99.90;;;;;;5091973;28;20433;-74
2023/09/29 06:04:17;;;;;;;1999.90;999.90;;;18.10;99.90;;;;;;5078015;28;20431;-73
2023/09/29 06:06:44;;;;;;;1999.90;999.90;;;18.00;99.90;;;;;;5082525;28;20425;-73
2023/09/29 06:09:11;;;;;;;1999.90;999.90;;;18.00;99.90;;;;;;5083432;28;20457;-74
2023/09/29 06:11:37;;;;;;;1999.90;999.90;;;18.00;99.90;;;;;;5085344;28;21181;-74
2023/09/29 06:14:04;;;;;;;1999.90;999.90;;;18.10;99.90;;;;;;5084903;28;20430;-74
2023/09/29 06:16:32;;;;;;;1999.90;999.90;;;18.20;99.90;;;;;;5078507;28;20427;-74
2023/09/29 06:18:59;;;;;;;1999.90;999.90;;;18.30;99.90;;;;;;5086715;28;20542;-74
2023/09/29 06:21:25;;;;;;;1999.90;999.90;;;18.30;99.90;;;;;;5086070;28;20436;-74
2023/09/29 06:23:52;;;;;;;1999.90;999.90;;;18.40;99.90;;;;;;5087329;28;20485;-74
2023/09/29 06:26:19;;;;;;;1999.90;999.90;;;18.40;99.90;;;;;;5086026;28;20422;-74
2023/09/29 06:28:45;;;;;;;1999.90;999.90;;;18.30;99.90;;;;;;5078884;28;20978;-74
2023/09/29 06:31:12;;;;;;;1999.90;999.90;;;18.40;99.90;;;;;;5084149;28;20429;-74
2023/09/29 06:33:40;;;;;;;1999.90;999.90;;;18.70;99.90;;;;;;5088618;28;20433;-74
2023/09/29 06:36:07;;;;;;;1999.90;999.90;;;18.80;99.90;;;;;;5086158;28;20433;-74
2023/09/29 06:38:34;;;;;;;1999.90;999.90;;;18.60;99.90;;;;;;5081067;28;20449;-74
2023/09/29 06:41:00;;;;;;;1999.90;999.90;;;18.80;99.90;;;;;;5078594;28;20461;-74
2023/09/29 06:43:27;;;;;;;1999.90;999.90;;;18.80;99.90;;;;;;5082504;28;20432;-74
2023/09/29 06:45:54;;;;;;;1999.90;999.90;;;18.70;99.90;;;;;;5084977;28;20924;-74
2023/09/29 06:48:20;;;;;;;1999.90;999.90;;;18.80;99.90;;;;;;5087732;28;20434;-74
2023/09/29 06:50:48;;;;;;;1999.90;999.90;;;18.80;99.90;;;;;;5083410;28;20446;-74
2023/09/29 06:53:15;;;;;;;1999.90;999.90;;;18.90;99.90;;;;;;5078073;28;20479;-74
2023/09/29 06:55:42;;;;;;;1999.90;999.90;;;19.00;99.90;;;;;;5088310;28;20434;-74
2023/09/29 06:58:08;;;;;;;1999.90;999.90;;;19.20;99.90;;;;;;5083613;28;20431;-74
2023/09/29 07:00:35;;;;;;;1999.90;999.90;;;19.40;99.90;;;;;;5078681;28;20437;-74
2023/09/29 07:03:02;;;;;;;1999.90;999.90;;;19.50;99.90;;;;;;5079663;28;20992;-74
2023/09/29 07:05:28;;;;;;;1999.90;999.90;;;19.50;99.90;;;;;;5084717;28;20449;-73
2023/09/29 07:07:56;;;;;;;1999.90;999.90;;;19.60;99.90;;;;;;5078808;28;20442;-74
2023/09/29 07:10:23;;;;;;;1999.90;999.90;;;19.70;99.90;;;;;;5082865;28;20459;-74
2023/09/29 07:12:50;;;;;;;1999.90;999.90;;;19.90;99.90;;;;;;5083287;28;20530;-74
2023/09/29 07:15:17;;;;;;;1999.90;999.90;;;20.00;99.90;;;;;;5080206;28;20426;-74
2023/09/29 07:17:43;;;;;;;1999.90;999.90;;;19.60;99.90;;;;;;5083072;28;20946;-74
2023/09/29 07:20:12;;;;;;;1999.90;999.90;;;19.40;99.90;;;;;;5082523;28;20442;-74
2023/09/29 07:22:39;;;;;;;1999.90;999.90;;;19.40;99.90;;;;;;5083949;28;20842;-74
2023/09/29 07:25:08;;;;;;;1999.90;999.90;;;19.50;99.90;;;;;;5077351;28;20427;-74
2023/09/29 07:27:36;;;;;;;1999.90;999.90;;;19.40;99.90;;;;;;5086272;28;20920;-74
2023/09/29 07:30:03;;;;;;;1999.90;999.90;;;19.60;99.90;;;;;;5078206;28;20454;-74
2023/09/29 07:32:31;;;;;;;1999.90;999.90;;;19.50;99.90;;;;;;5083972;28;20429;-74
2023/09/29 07:34:57;;;;;;;1999.90;999.90;;;19.40;99.90;;;;;;5084636;28;20430;-75
2023/09/29 07:37:24;;;;;;;1999.90;999.90;;;19.50;99.90;;;;;;5082776;28;20826;-73
2023/09/29 07:39:51;;;;;;;1999.90;999.90;;;19.80;99.90;;;;;;5086362;28;20432;-74
2023/09/29 07:42:19;;;;;;;1999.90;999.90;;;19.80;99.90;;;;;;5084398;28;20795;-75
2023/09/29 07:44:45;;;;;;;1999.90;999.90;;;19.60;99.90;;;;;;5082605;28;20418;-74
2023/09/29 07:47:12;;;;;;;1999.90;999.90;;;19.60;99.90;;;;;;5084605;28;20413;-74
2023/09/29 07:49:40;;;;;;;1999.90;999.90;;;19.60;99.90;;;;;;5089001;28;20434;-74
2023/09/29 07:52:07;;;;;;;1999.90;999.90;;;19.50;99.90;;;;;;5083681;28;20410;-74
2023/09/29 07:54:35;;;;;;;1999.90;999.90;;;19.50;99.90;;;;;;5089821;28;20446;-74
2023/09/29 07:57:02;;;;;;;1999.90;999.90;;;19.40;99.90;;;;;;5089965;28;20943;-74
2023/09/29 07:59:30;;;;;;;1999.90;999.90;;;19.40;99.90;;;;;;5089189;28;20429;-74
2023/09/29 08:01:58;;;;;;;1999.90;999.90;;;19.50;99.90;;;;;;5083356;28;20502;-74
2023/09/29 08:04:25;;;;;;;1999.90;999.90;;;19.60;99.90;;;;;;5075989;28;20879;-74
2023/09/29 08:06:51;;;;;;;1999.90;999.90;;;19.60;99.90;;;;;;5080933;28;20422;-74
2023/09/29 08:09:19;;;;;;;1999.90;999.90;;;19.60;99.90;;;;;;5083118;28;20922;-75
2023/09/29 08:11:46;;;;;;;1999.90;999.90;;;19.60;99.90;;;;;;5086902;28;20906;-74
2023/09/29 08:14:13;;;;;;;1999.90;999.90;;;19.60;99.90;;;;;;5086506;28;20461;-74
2023/09/29 08:16:41;;;;;;;1999.90;999.90;;;19.60;99.90;;;;;;5082167;28;20468;-74
2023/09/29 08:19:08;;;;;;;1999.90;999.90;;;19.60;99.90;;;;;;5081022;28;20440;-74
2023/09/29 08:21:35;;;;;;;1999.90;999.90;;;19.70;99.90;;;;;;5093895;28;20429;-75
2023/09/29 08:24:03;;;;;;;1999.90;999.90;;;19.70;99.90;;;;;;5086278;28;20425;-74
2023/09/29 08:26:30;;;;;;;1999.90;999.90;;;19.80;99.90;;;;;;5087256;28;20764;-73
2023/09/29 08:28:58;;;;;;;1999.90;999.90;;;19.90;99.90;;;;;;5093822;28;20455;-75
2023/09/29 08:31:25;;;;;;;1999.90;999.90;;;19.90;99.90;;;;;;5092525;28;20445;-74
2023/09/29 08:33:53;;;;;;;1999.90;999.90;;;20.00;99.90;;;;;;5085855;28;20406;-74
2023/09/29 08:36:21;;;;;;;1999.90;999.90;;;20.10;99.90;;;;;;5083418;28;20448;-75
2023/09/29 08:38:47;;;;;;;1999.90;999.90;;;20.20;99.90;;;;;;5088258;28;20663;-74
2023/09/29 08:41:16;;;;;;;1999.90;999.90;;;20.30;99.90;;;;;;5082395;28;20436;-74
2023/09/29 08:43:44;;;;;;;1999.90;999.90;;;20.40;99.90;;;;;;5092630;28;20795;-74
2023/09/29 08:46:13;;;;;;;1999.90;999.90;;;20.40;99.90;;;;;;5088291;28;20465;-74
2023/09/29 08:48:43;;;;;;;1999.90;999.90;;;20.70;99.90;;;;;;5087305;28;20421;-75
2023/09/29 08:51:14;;;;;;;1999.90;999.90;;;20.40;99.90;;;;;;5089174;28;20428;-74
2023/09/29 08:53:40;;;;;;;1999.90;999.90;;;20.70;99.90;;;;;;5084434;28;20913;-74
2023/09/29 08:56:11;;;;;;;1999.90;999.90;;;21.10;99.90;;;;;;5093012;28;20779;-73
2023/09/29 08:58:38;;;;;;;1999.90;999.90;;;20.80;99.90;;;;;;5092933;28;20433;-73
2023/09/29 09:01:05;;;;;;;1999.90;999.90;;;20.70;99.90;;;;;;5090436;28;20434;-74
2023/09/29 09:03:32;;;;;;;1999.90;999.90;;;20.70;99.90;;;;;;5088732;28;20426;-73
2023/09/29 09:05:59;;;;;;;1999.90;999.90;;;20.60;99.90;;;;;;5084548;28;20541;-73
2023/09/29 09:08:27;;;;;;;1999.90;999.90;;;20.60;99.90;;;;;;5087557;28;20433;-74
2023/09/29 09:10:58;;;;;;;1999.90;999.90;;;20.60;99.90;;;;;;5084000;28;20472;-74
2023/09/29 09:13:26;;;;;;;1999.90;999.90;;;20.60;99.90;;;;;;5075789;28;20435;-73
2023/09/29 09:15:57;;;;;;;1999.90;999.90;;;20.70;99.90;;;;;;5090505;28;20430;-74
2023/09/29 09:18:27;;;;;;;1999.90;999.90;;;20.70;99.90;;;;;;5088312;28;20425;-73
2023/09/29 09:20:54;;;;;;;1999.90;999.90;;;20.70;99.90;;;;;;5090021;28;20931;-73
2023/09/29 09:23:21;;;;;;;1999.90;999.90;;;20.70;99.90;;;;;;5084854;28;20432;-73
2023/09/29 09:25:49;;;;;;;1999.90;999.90;;;21.10;99.90;;;;;;5075045;28;20432;-75
2023/09/29 09:28:17;;;;;;;1999.90;999.90;;;20.80;99.90;;;;;;5089446;28;20425;-74
2023/09/29 09:30:45;;;;;;;1999.90;999.90;;;21.10;99.90;;;;;;5087378;28;20522;-74
2023/09/29 09:33:17;;;;;;;1999.90;999.90;;;21.20;99.90;;;;;;5085247;28;20532;-74
2023/09/29 09:35:44;;;;;;;1999.90;999.90;;;21.40;99.90;;;;;;5079019;28;20431;-74
2023/09/29 09:38:11;;;;;;;1999.90;999.90;;;21.70;99.90;;;;;;5089115;28;20429;-75
2023/09/29 09:40:38;;;;;;;1999.90;999.90;;;22.00;99.90;;;;;;5087476;28;20421;-73
2023/09/29 09:43:09;;;;;;;1999.90;999.90;;;22.00;99.90;;;;;;5085324;28;20416;-75
2023/09/29 09:45:39;;;;;;;1999.90;999.90;;;21.80;99.90;;;;;;5086402;28;20411;-75
2023/09/29 09:48:07;;;;;;;1999.90;999.90;;;21.90;99.90;;;;;;5088793;28;20424;-72
2023/09/29 09:50:36;;;;;;;1999.90;999.90;;;21.80;99.90;;;;;;5088735;28;20422;-72
2023/09/29 09:53:06;;;;;;;1999.90;999.90;;;22.00;99.90;;;;;;5078621;28;20440;-73
2023/09/29 09:55:39;;;;;;;1999.90;999.90;;;22.00;99.90;;;;;;5082854;28;20844;-74
2023/09/29 09:58:11;;;;;;;1999.90;999.90;;;22.00;99.90;;;;;;5088506;28;20483;-74
2023/09/29 10:00:41;;;;;;;1999.90;999.90;;;22.10;99.90;;;;;;5088242;28;20820;-75
2023/09/29 10:03:11;;;;;;;1999.90;999.90;;;22.00;99.90;;;;;;5082163;28;20432;-72
2023/09/29 10:05:40;;;;;;;1999.90;999.90;;;22.00;99.90;;;;;;5079377;28;20518;-73
2023/09/29 10:08:10;;;;;;;1999.90;999.90;;;22.00;99.90;;;;;;5077803;28;20440;-73
2023/09/29 10:10:38;;;;;;;1999.90;999.90;;;22.00;99.90;;;;;;5089082;28;20501;-74
2023/09/29 10:13:11;;;;;;;1999.90;999.90;;;22.10;99.90;;;;;;5087442;28;20421;-73
2023/09/29 10:15:38;;;;;;;1999.90;999.90;;;22.40;99.90;;;;;;5087390;28;20433;-74
2023/09/29 10:18:16;;;;;;;1999.90;999.90;;;22.00;99.90;;;;;;5086227;28;20428;-74
2023/09/29 10:20:43;;;;;;;1999.90;999.90;;;21.80;99.90;;;;;;5083558;28;20438;-74
2023/09/29 10:23:14;;;;;;;1999.90;999.90;;;21.80;99.90;;;;;;5086808;28;20440;-73
2023/09/29 10:25:42;;;;;;;1999.90;999.90;;;21.80;99.90;;;;;;5085835;28;20437;-75
2023/09/29 10:28:12;;;;;;;1999.90;999.90;;;21.80;99.90;;;;;;5088093;28;20426;-75
2023/09/29 10:30:40;;;;;;;1999.90;999.90;;;21.80;99.90;;;;;;5078428;28;20504;-74
2023/09/29 10:33:11;;;;;;;1999.90;999.90;;;21.90;99.90;;;;;;5083238;28;20425;-73
2023/09/29 10:35:44;;;;;;;1999.90;999.90;;;21.90;99.90;;;;;;5088612;28;20490;-74
2023/09/29 10:38:12;;;;;;;1999.90;999.90;;;21.80;99.90;;;;;;5085806;28;20510;-72
2023/09/29 10:40:39;;;;;;;1999.90;999.90;;;21.80;99.90;;;;;;5085991;28;20438;-73
2023/09/29 10:43:06;;;;;;;1999.90;999.90;;;21.80;99.90;;;;;;5083481;28;20441;-73
2023/09/29 10:45:37;;;;;;;1999.90;999.90;;;21.80;99.90;;;;;;5082168;28;20427;-73
2023/09/29 10:48:06;;;;;;;1999.90;999.90;;;22.00;99.90;;;;;;5079972;28;20410;-74
2023/09/29 10:50:43;;;;;;;1999.90;999.90;;;22.20;99.90;;;;;;5090904;28;20482;-73
2023/09/29 10:53:10;;;;;;;1999.90;999.90;;;22.30;99.90;;;;;;5087233;28;20429;-73
2023/09/29 10:55:43;;;;;;;1999.90;999.90;;;22.30;99.90;;;;;;5082246;28;21080;-75
2023/09/29 10:58:10;;;;;;;1999.90;999.90;;;22.50;99.90;;;;;;5090659;28;20426;-75
2023/09/29 11:00:43;;;;;;;1999.90;999.90;;;22.40;99.90;;;;;;5088422;28;20929;-75
2023/09/29 11:03:11;;;;;;;1999.90;999.90;;;22.40;99.90;;;;;;5085361;28;20799;-73
2023/09/29 11:05:50;;;;;;;1999.90;999.90;;;22.80;99.90;;;;;;5088273;28;20438;-75
2023/09/29 11:08:19;;;;;;;1999.90;999.90;;;22.70;99.90;;;;;;5084414;28;20426;-72
2023/09/29 11:10:56;;;;;;;1999.90;999.90;;;22.80;99.90;;;;;;5085966;28;20432;-75
2023/09/29 11:13:23;;;;;;;1999.90;999.90;;;22.80;99.90;;;;;;5085410;28;20431;-75
2023/09/29 11:15:52;;;;;;;1999.90;999.90;;;22.90;99.90;;;;;;5079600;28;20442;-75
2023/09/29 11:18:37;;;;;;;1999.90;999.90;;;22.90;99.90;;;;;;5084684;28;20428;-75
2023/09/29 11:21:09;;;;;;;1999.90;999.90;;;23.10;99.90;;;;;;5084345;28;20434;-74
2023/09/29 11:23:44;;;;;;;1999.90;999.90;;;23.40;99.90;;;;;;5085474;28;20535;-73
2023/09/29 11:26:12;;;;;;;1999.90;999.90;;;23.60;99.90;;;;;;5088447;28;20436;-73
2023/09/29 11:28:42;;;;;;;1999.90;999.90;;;23.80;99.90;;;;;;5079697;28;20426;-72
2023/09/29 11:31:12;;;;;;;1999.90;999.90;;;23.80;99.90;;;;;;5090294;28;20405;-73
2023/09/29 11:33:39;;;;;;;1999.90;999.90;;;23.90;99.90;;;;;;5089633;28;20449;-72
2023/09/29 11:36:14;;;;;;;1999.90;999.90;;;24.00;99.90;;;;;;5085285;28;20518;-73
2023/09/29 11:38:40;;;;;;;1999.90;999.90;;;24.10;99.90;;;;;;5084700;28;20429;-73
2023/09/29 11:41:08;;;;;;;1999.90;999.90;;;24.30;99.90;;;;;;5084947;28;20417;-73
2023/09/29 11:43:34;;;;;;;1999.90;999.90;;;24.60;99.90;;;;;;5089563;28;20414;-72
2023/09/29 11:46:03;;;;;;;1999.90;999.90;;;24.40;99.90;;;;;;5087903;28;20437;-73
2023/09/29 11:48:31;;;;;;;1999.90;999.90;;;24.50;99.90;;;;;;5086659;28;20422;-73
2023/09/29 11:50:58;;;;;;;1999.90;999.90;;;24.70;99.90;;;;;;5086325;28;20406;-73
2023/09/29 11:53:25;;;;;;;1999.90;999.90;;;24.50;99.90;;;;;;5093920;28;20446;-72
2023/09/29 11:55:54;;;;;;;1999.90;999.90;;;24.70;99.90;;;;;;5092134;28;20556;-73
2023/09/29 11:58:20;;;;;;;1999.90;999.90;;;24.70;99.90;;;;;;5081810;28;20801;-72
2023/09/29 12:00:47;;;;;;;1999.90;999.90;;;24.80;99.90;;;;;;5093188;28;20432;-73